createdAt,value
2018-01-15T00:01:52.530Z,30.50
2018-01-15T00:04:20.005Z,26.27
2018-01-15T00:06:48.240Z,28.60
2018-01-15T00:09:15.746Z,28.35
2018-01-15T00:11:44.017Z,28.00
2018-01-15T00:14:12.254Z,28.10
2018-01-15T00:16:39.757Z,32.45
2018-01-15T00:19:08.010Z,30.10
2018-01-15T00:21:35.516Z,28.85
2018-01-15T00:24:03.021Z,33.72
2018-01-15T00:26:30.486Z,30.00
2018-01-15T00:28:57.957Z,31.05
2018-01-15T00:31:25.522Z,34.45
2018-01-15T00:33:52.959Z,31.10
2018-01-15T00:36:20.425Z,39.05
2018-01-15T00:38:47.934Z,36.33
2018-01-15T00:41:15.409Z,35.05
2018-01-15T00:43:42.902Z,37.35
2018-01-15T00:46:10.377Z,32.67
2018-01-15T00:48:38.601Z,33.42
2018-01-15T00:51:06.138Z,37.15
2018-01-15T00:53:33.615Z,34.10
2018-01-15T00:56:01.081Z,39.15
2018-01-15T00:58:28.589Z,37.20
2018-01-15T01:00:56.842Z,44.33
2018-01-15T01:03:24.332Z,36.38
2018-01-15T01:05:52.568Z,46.05
2018-01-15T01:08:20.063Z,34.85
2018-01-15T01:10:48.289Z,35.13
2018-01-15T01:13:15.765Z,42.85
2018-01-15T01:15:44.058Z,37.28
2018-01-15T01:18:11.525Z,37.95
2018-01-15T01:20:39.770Z,35.88
2018-01-15T01:23:07.263Z,40.03
2018-01-15T01:25:35.538Z,36.22
2018-01-15T01:28:03.777Z,34.97
2018-01-15T01:30:31.253Z,38.55
2018-01-15T01:32:58.752Z,38.83
2018-01-15T01:35:26.225Z,37.85
2018-01-15T01:37:53.682Z,37.13
2018-01-15T01:40:21.199Z,34.45
2018-01-15T01:42:48.671Z,34.22
2018-01-15T01:45:16.922Z,38.17
2018-01-15T01:47:44.398Z,30.33
2018-01-15T01:50:12.643Z,34.22
2018-01-15T01:52:40.134Z,37.25
2018-01-15T01:55:08.389Z,29.63
2018-01-15T01:57:35.890Z,39.63
2018-01-15T02:00:03.362Z,40.50
2018-01-15T02:02:30.874Z,34.15
2018-01-15T02:04:58.349Z,34.55
2018-01-15T02:07:26.607Z,35.70
2018-01-15T02:09:54.110Z,39.13
2018-01-15T02:12:21.638Z,35.45
2018-01-15T02:14:49.882Z,39.25
2018-01-15T02:17:17.367Z,33.22
2018-01-15T02:19:44.874Z,46.58
2018-01-15T02:22:12.337Z,46.40
2018-01-15T02:24:39.811Z,46.63
2018-01-15T02:27:07.293Z,47.62
2018-01-15T02:29:34.769Z,46.45
2018-01-15T02:32:02.270Z,50.50
2018-01-15T02:34:29.750Z,48.30
2018-01-15T02:36:57.233Z,48.72
2018-01-15T02:39:24.728Z,41.00
2018-01-15T02:41:52.217Z,45.60
2018-01-15T02:44:19.711Z,49.85
2018-01-15T02:46:47.182Z,50.40
2018-01-15T02:49:15.466Z,53.75
2018-01-15T02:51:43.722Z,43.47
2018-01-15T02:54:11.211Z,50.67
2018-01-15T02:56:38.701Z,49.38
2018-01-15T02:59:06.170Z,54.00
2018-01-15T03:01:33.670Z,47.13
2018-01-15T03:04:01.911Z,44.08
2018-01-15T03:06:29.408Z,52.22
2018-01-15T03:08:57.741Z,55.97
2018-01-15T03:11:25.201Z,47.35
2018-01-15T03:13:52.690Z,63.60
2018-01-15T03:16:20.165Z,52.75
2018-01-15T03:18:47.675Z,51.70
2018-01-15T03:21:15.145Z,60.28
2018-01-15T03:23:42.654Z,49.83
2018-01-15T03:26:10.133Z,53.67
2018-01-15T03:28:37.605Z,48.50
2018-01-15T03:31:05.153Z,47.83
2018-01-15T03:33:32.615Z,47.15
2018-01-15T03:36:00.115Z,56.17
2018-01-15T03:38:28.363Z,53.53
2018-01-15T03:40:55.999Z,59.80
2018-01-15T03:43:23.489Z,57.42
2018-01-15T03:45:50.966Z,52.83
2018-01-15T03:48:18.526Z,51.92
2018-01-15T03:50:45.945Z,54.45
2018-01-15T03:53:13.441Z,60.03
2018-01-15T03:55:40.906Z,59.97
2018-01-15T03:58:08.421Z,53.08
2018-01-15T04:00:35.891Z,55.15
2018-01-15T04:03:03.370Z,45.20
2018-01-15T04:05:30.862Z,59.92
2018-01-15T04:07:59.130Z,63.40
2018-01-15T04:10:27.358Z,55.10
2018-01-15T04:12:54.840Z,51.63
2018-01-15T04:15:22.369Z,60.35
2018-01-15T04:17:49.851Z,50.28
2018-01-15T04:20:17.340Z,63.20
2018-01-15T04:22:45.598Z,55.05
2018-01-15T04:25:13.076Z,57.20
2018-01-15T04:27:41.342Z,72.72
2018-01-15T04:30:08.810Z,68.00
2018-01-15T04:32:37.061Z,76.40
2018-01-15T04:35:04.570Z,72.50
2018-01-15T04:37:32.057Z,73.12
2018-01-15T04:39:59.570Z,69.22
2018-01-15T04:42:27.038Z,71.10
2018-01-15T04:44:54.547Z,72.25
2018-01-15T04:47:22.023Z,65.82
2018-01-15T04:49:49.497Z,73.68
2018-01-15T04:52:17.765Z,77.00
2018-01-15T04:54:46.028Z,76.62
2018-01-15T04:57:13.494Z,65.62
2018-01-15T04:59:41.010Z,70.50
2018-01-15T05:02:08.483Z,70.15
2018-01-15T05:04:35.974Z,81.35
2018-01-15T05:07:04.230Z,66.28
2018-01-15T05:09:31.722Z,77.55
2018-01-15T05:11:59.989Z,78.53
2018-01-15T05:14:27.461Z,78.65
2018-01-15T05:16:54.967Z,81.18
2018-01-15T05:19:22.437Z,72.00
2018-01-15T05:21:49.943Z,71.28
2018-01-15T05:24:17.444Z,77.80
2018-01-15T05:26:44.917Z,71.78
2018-01-15T05:29:12.418Z,70.78
2018-01-15T05:31:39.919Z,81.90
2018-01-15T05:34:07.377Z,76.72
2018-01-15T05:36:34.916Z,67.65
2018-01-15T05:39:02.381Z,65.22
2018-01-15T05:41:29.885Z,77.28
2018-01-15T05:43:57.465Z,76.95
2018-01-15T05:46:25.723Z,74.90
2018-01-15T05:48:53.201Z,74.57
2018-01-15T05:51:21.434Z,83.82
2018-01-15T05:53:48.933Z,70.47
2018-01-15T05:56:17.179Z,75.85
2018-01-15T05:58:44.653Z,81.00
2018-01-15T06:01:12.920Z,78.10
2018-01-15T06:03:40.421Z,83.93
2018-01-15T06:06:07.909Z,79.70
2018-01-15T06:08:35.397Z,80.65
2018-01-15T06:11:02.909Z,94.82
2018-01-15T06:13:30.386Z,77.12
2018-01-15T06:15:57.893Z,78.32
2018-01-15T06:18:26.139Z,88.75
2018-01-15T06:20:53.618Z,95.03
2018-01-15T06:23:21.892Z,84.20
2018-01-15T06:25:49.385Z,87.22
2018-01-15T06:28:16.882Z,79.80
2018-01-15T06:30:44.353Z,85.45
2018-01-15T06:33:13.370Z,79.00
2018-01-15T06:35:41.606Z,85.70
2018-01-15T06:38:09.089Z,79.55
2018-01-15T06:40:36.569Z,67.15
2018-01-15T06:43:04.847Z,77.55
2018-01-15T06:45:33.122Z,90.30
2018-01-15T06:48:01.367Z,87.03
2018-01-15T06:50:28.840Z,66.65
2018-01-15T06:52:56.333Z,77.80
2018-01-15T06:55:23.805Z,90.07
2018-01-15T06:57:51.319Z,75.28
2018-01-15T07:00:18.781Z,70.37
2018-01-15T07:02:47.040Z,77.43
2018-01-15T07:05:14.560Z,78.35
2018-01-15T07:07:42.033Z,71.45
2018-01-15T07:10:09.572Z,82.53
2018-01-15T07:12:37.037Z,90.93
2018-01-15T07:15:04.576Z,85.53
2018-01-15T07:17:32.014Z,71.87
2018-01-15T07:19:59.483Z,72.80
2018-01-15T07:22:27.742Z,79.50
2018-01-15T07:24:55.351Z,67.93
2018-01-15T07:27:22.870Z,85.35
2018-01-15T07:29:50.381Z,75.20
2018-01-15T07:32:17.851Z,82.32
2018-01-15T07:34:45.353Z,79.37
2018-01-15T07:37:13.634Z,80.90
2018-01-15T07:39:41.852Z,75.35
2018-01-15T07:42:09.356Z,78.65
2018-01-15T07:44:37.594Z,73.60
2018-01-15T07:47:05.097Z,74.60
2018-01-15T07:49:33.342Z,74.45
2018-01-15T07:52:00.810Z,67.57
2018-01-15T07:54:28.296Z,79.10
2018-01-15T07:56:56.530Z,63.33
2018-01-15T07:59:24.018Z,66.97
2018-01-15T08:01:52.249Z,66.10
2018-01-15T08:04:19.757Z,67.37
2018-01-15T08:06:48.004Z,67.55
2018-01-15T08:09:15.469Z,71.30
2018-01-15T08:11:42.978Z,69.55
2018-01-15T08:14:10.444Z,66.78
2018-01-15T08:16:37.941Z,62.20
2018-01-15T08:19:05.424Z,64.87
2018-01-15T08:21:33.699Z,68.35
2018-01-15T08:24:02.697Z,66.50
2018-01-15T08:26:30.973Z,68.00
2018-01-15T08:28:58.477Z,71.40
2018-01-15T08:31:25.980Z,71.80
2018-01-15T08:33:55.109Z,62.40
2018-01-15T08:36:23.351Z,60.30
2018-01-15T08:38:50.825Z,58.28
2018-01-15T08:41:19.112Z,68.80
2018-01-15T08:43:47.319Z,62.33
2018-01-15T08:46:14.810Z,71.82
2018-01-15T08:48:42.282Z,66.25
2018-01-15T08:51:09.769Z,56.00
2018-01-15T08:53:37.235Z,61.75
2018-01-15T08:56:04.723Z,69.35
2018-01-15T08:58:32.225Z,80.03
2018-01-15T09:01:00.524Z,65.07
2018-01-15T09:03:28.014Z,70.65
2018-01-15T09:05:55.485Z,75.68
2018-01-15T09:08:22.968Z,75.53
2018-01-15T09:10:50.482Z,67.45
2018-01-15T09:13:17.941Z,78.57
2018-01-15T09:15:45.449Z,73.43
2018-01-15T09:18:12.913Z,71.82
2018-01-15T09:20:41.165Z,73.62
2018-01-15T09:23:08.658Z,78.10
2018-01-15T09:25:36.901Z,70.12
2018-01-15T09:28:04.420Z,71.90
2018-01-15T09:30:31.905Z,70.97
2018-01-15T09:32:59.370Z,70.50
2018-01-15T09:35:26.857Z,79.37
2018-01-15T09:37:54.351Z,70.37
2018-01-15T09:40:22.598Z,70.35
2018-01-15T09:42:50.833Z,69.85
2018-01-15T09:45:18.321Z,75.10
2018-01-15T09:47:45.818Z,60.12
2018-01-15T09:50:13.302Z,65.28
2018-01-15T09:52:40.801Z,65.00
2018-01-15T09:55:09.035Z,55.35
2018-01-15T09:57:36.536Z,65.18
2018-01-15T10:00:04.034Z,59.15
2018-01-15T10:02:31.511Z,57.70
2018-01-15T10:04:59.024Z,56.53
2018-01-15T10:07:27.255Z,49.35
2018-01-15T10:09:54.718Z,55.38
2018-01-15T10:12:22.203Z,53.67
2018-01-15T10:14:49.670Z,52.83
2018-01-15T10:17:17.929Z,60.42
2018-01-15T10:19:45.411Z,59.08
2018-01-15T10:22:13.666Z,52.47
2018-01-15T10:24:41.143Z,60.08
2018-01-15T10:27:09.435Z,56.47
2018-01-15T10:29:37.703Z,54.08
2018-01-15T10:32:05.937Z,48.83
2018-01-15T10:34:33.433Z,62.55
2018-01-15T10:37:01.663Z,58.85
2018-01-15T10:39:30.766Z,49.40
2018-01-15T10:41:58.261Z,57.33
2018-01-15T10:44:26.490Z,60.05
2018-01-15T10:46:53.972Z,60.80
2018-01-15T10:49:21.445Z,59.10
2018-01-15T10:51:49.737Z,65.97
2018-01-15T10:54:17.978Z,49.75
2018-01-15T10:56:45.446Z,54.08
2018-01-15T10:59:12.946Z,52.22
2018-01-15T11:01:40.422Z,46.85
2018-01-15T11:04:07.914Z,51.70
2018-01-15T11:06:35.429Z,49.75
2018-01-15T11:09:02.938Z,49.05
2018-01-15T11:11:30.422Z,54.67
2018-01-15T11:13:58.651Z,49.63
2018-01-15T11:16:26.150Z,52.05
2018-01-15T11:18:54.383Z,49.85
2018-01-15T11:21:21.869Z,55.28
2018-01-15T11:23:49.361Z,50.22
2018-01-15T11:26:16.831Z,53.38
2018-01-15T11:28:44.336Z,60.88
2018-01-15T11:31:11.802Z,53.05
2018-01-15T11:33:39.286Z,52.97
2018-01-15T11:36:07.560Z,57.60
2018-01-15T11:38:35.778Z,56.20
2018-01-15T11:41:03.281Z,55.80
2018-01-15T11:43:31.529Z,61.97
2018-01-15T11:45:59.022Z,63.00
2018-01-15T11:48:27.278Z,51.22
2018-01-15T11:50:54.753Z,55.17
2018-01-15T11:53:22.250Z,51.78
2018-01-15T11:55:49.750Z,55.58
2018-01-15T11:58:17.241Z,64.97
2018-01-15T12:00:45.478Z,56.85
2018-01-15T12:03:12.990Z,65.47
2018-01-15T12:05:40.454Z,60.28
2018-01-15T12:08:07.922Z,56.53
2018-01-15T12:10:35.422Z,57.55
2018-01-15T12:13:02.886Z,58.95
2018-01-15T12:15:30.353Z,62.65
2018-01-15T12:17:58.633Z,47.33
2018-01-15T12:20:26.885Z,49.40
2018-01-15T12:22:54.421Z,63.97
2018-01-15T12:25:21.921Z,56.45
2018-01-15T12:27:49.401Z,51.60
2018-01-15T12:30:17.672Z,60.55
2018-01-15T12:32:45.934Z,57.95
2018-01-15T12:35:13.417Z,62.13
2018-01-15T12:37:40.922Z,52.55
2018-01-15T12:40:08.407Z,61.85
2018-01-15T12:42:35.871Z,47.88
2018-01-15T12:45:04.130Z,52.70
2018-01-15T12:47:31.630Z,53.80
2018-01-15T12:49:59.871Z,55.67
2018-01-15T12:52:27.380Z,62.15
2018-01-15T12:54:54.860Z,56.15
2018-01-15T12:57:22.330Z,53.80
2018-01-15T12:59:49.814Z,54.05
2018-01-15T13:02:17.287Z,65.12
2018-01-15T13:04:45.577Z,55.00
2018-01-15T13:07:25.061Z,52.35
2018-01-15T13:09:52.588Z,52.72
2018-01-15T13:12:20.047Z,53.78
2018-01-15T13:14:47.522Z,55.53
2018-01-15T13:17:15.060Z,61.50
2018-01-15T13:19:42.525Z,58.30
2018-01-15T13:22:10.002Z,55.17
2018-01-15T13:24:37.494Z,55.60
2018-01-15T13:27:04.959Z,59.03
2018-01-15T13:29:32.469Z,52.42
2018-01-15T13:31:59.935Z,52.92
2018-01-15T13:34:27.485Z,49.08
2018-01-15T13:36:54.981Z,52.25
2018-01-15T13:39:22.458Z,58.35
2018-01-15T13:41:50.722Z,57.70
2018-01-15T13:44:18.190Z,52.30
2018-01-15T13:46:45.698Z,53.20
2018-01-15T13:49:13.184Z,48.55
2018-01-15T13:51:40.682Z,58.95
2018-01-15T13:54:08.948Z,56.65
2018-01-15T13:56:36.430Z,47.97
2018-01-15T13:59:03.922Z,63.85
2018-01-15T14:01:31.426Z,44.92
2018-01-15T14:03:59.662Z,46.58
2018-01-15T14:06:27.184Z,44.75
2018-01-15T14:08:55.398Z,48.75
2018-01-15T14:11:22.906Z,42.33
2018-01-15T14:13:51.144Z,48.35
2018-01-15T14:16:18.632Z,48.55
2018-01-15T14:18:46.909Z,51.97
2018-01-15T14:21:15.144Z,43.83
2018-01-15T14:23:42.660Z,41.95
2018-01-15T14:26:10.902Z,48.58
2018-01-15T14:28:38.374Z,46.53
2018-01-15T14:31:05.890Z,49.33
2018-01-15T14:33:33.345Z,50.55
2018-01-15T14:36:00.847Z,50.12
2018-01-15T14:38:29.112Z,44.45
2018-01-15T14:40:56.591Z,66.47
2018-01-15T14:43:24.850Z,49.17
2018-01-15T14:45:52.321Z,49.05
2018-01-15T14:48:19.817Z,51.70
2018-01-15T14:50:47.742Z,39.80
2018-01-15T14:53:15.221Z,40.45
2018-01-15T14:55:42.694Z,47.92
2018-01-15T14:58:10.186Z,43.67
2018-01-15T15:00:37.689Z,43.17
2018-01-15T15:03:05.920Z,40.35
2018-01-15T15:05:33.427Z,48.05
2018-01-15T15:08:01.657Z,37.60
2018-01-15T15:10:29.130Z,40.25
2018-01-15T15:12:56.597Z,48.58
2018-01-15T15:15:24.081Z,46.35
2018-01-15T15:17:52.326Z,39.00
2018-01-15T15:20:19.793Z,41.92
2018-01-15T15:22:47.292Z,42.62
2018-01-15T15:25:14.805Z,55.28
2018-01-15T15:27:42.321Z,38.65
2018-01-15T15:30:09.838Z,43.78
2018-01-15T15:32:37.326Z,37.60
2018-01-15T15:35:04.821Z,41.08
2018-01-15T15:37:32.292Z,39.38
2018-01-15T15:39:59.840Z,43.92
2018-01-15T15:42:27.320Z,42.85
2018-01-15T15:44:54.789Z,41.10
2018-01-15T15:47:23.061Z,70.45
2018-01-15T15:49:50.547Z,45.85
2018-01-15T15:52:18.050Z,51.88
2018-01-15T15:54:45.515Z,37.33
2018-01-15T15:57:12.981Z,44.70
2018-01-15T15:59:41.245Z,39.05
2018-01-15T16:02:08.737Z,39.45
2018-01-15T16:04:36.238Z,36.78
2018-01-15T16:07:03.710Z,35.85
2018-01-15T16:09:31.170Z,40.77
2018-01-15T16:11:58.664Z,39.08
2018-01-15T16:14:26.139Z,39.55
2018-01-15T16:16:54.406Z,37.38
2018-01-15T16:19:22.672Z,37.55
2018-01-15T16:24:52.874Z,38.60
2018-01-15T16:27:20.390Z,31.58
2018-01-15T16:29:48.617Z,35.50
2018-01-15T16:32:16.118Z,34.40
2018-01-15T16:34:43.598Z,36.45
2018-01-15T16:37:11.091Z,39.78
2018-01-15T16:39:38.620Z,38.67
2018-01-15T16:42:06.082Z,36.65
2018-01-15T16:44:33.610Z,48.83
2018-01-15T16:47:01.842Z,36.70
2018-01-15T16:49:29.310Z,35.37
2018-01-15T16:51:56.810Z,41.03
2018-01-15T16:54:25.097Z,35.70
2018-01-15T16:56:53.372Z,43.60
2018-01-15T16:59:21.607Z,37.47
2018-01-15T17:01:49.124Z,40.78
2018-01-15T17:04:16.632Z,41.75
2018-01-15T17:06:44.116Z,41.08
2018-01-15T17:09:11.630Z,44.03
2018-01-15T17:11:39.110Z,43.70
2018-01-15T17:14:06.588Z,52.55
2018-01-15T17:16:34.086Z,31.87
2018-01-15T17:19:01.561Z,43.08
2018-01-15T17:21:29.052Z,43.33
2018-01-15T17:23:56.505Z,37.45
2018-01-15T17:26:24.031Z,46.60
2018-01-15T17:28:51.498Z,35.58
2018-01-15T17:31:18.998Z,38.65
2018-01-15T17:33:47.251Z,62.35
2018-01-15T17:36:14.718Z,39.38
2018-01-15T17:38:42.226Z,37.33
2018-01-15T17:41:09.751Z,40.55
2018-01-15T17:43:37.970Z,33.78
2018-01-15T17:46:05.482Z,31.37
2018-01-15T17:48:33.710Z,35.78
2018-01-15T17:51:01.231Z,31.30
2018-01-15T17:53:29.465Z,43.38
2018-01-15T17:55:57.094Z,42.47
2018-01-15T17:58:24.590Z,38.65
2018-01-15T18:00:52.058Z,40.03
2018-01-15T18:03:19.581Z,30.85
2018-01-15T18:05:47.082Z,31.02
2018-01-15T18:08:14.562Z,42.40
2018-01-15T18:10:42.839Z,26.70
2018-01-15T18:13:11.057Z,32.92
2018-01-15T18:15:38.569Z,36.00
2018-01-15T18:18:06.806Z,35.60
2018-01-15T18:20:34.322Z,30.65
2018-01-15T18:23:01.794Z,33.45
2018-01-15T18:25:29.296Z,29.80
2018-01-15T18:27:56.798Z,34.00
2018-01-15T18:30:24.309Z,30.50
2018-01-15T18:32:52.577Z,33.17
2018-01-15T18:35:20.087Z,35.50
2018-01-15T18:37:48.342Z,47.70
2018-01-15T18:40:16.582Z,31.23
2018-01-15T18:42:44.094Z,30.60
2018-01-15T18:45:12.362Z,35.75
2018-01-15T18:47:40.613Z,39.85
2018-01-15T18:50:08.110Z,38.58
2018-01-15T18:52:35.611Z,38.88
2018-01-15T18:55:03.113Z,38.05
2018-01-15T18:57:31.363Z,40.63
2018-01-15T18:59:58.862Z,39.92
2018-01-15T19:02:27.146Z,40.45
2018-01-15T19:04:54.616Z,34.25
2018-01-15T19:07:22.181Z,45.80
2018-01-15T19:09:49.649Z,32.83
2018-01-15T19:12:17.127Z,38.42
2018-01-15T19:14:44.750Z,32.08
2018-01-15T19:17:12.230Z,30.33
2018-01-15T19:19:39.722Z,34.08
2018-01-15T19:22:07.949Z,34.85
2018-01-15T19:24:35.464Z,34.92
2018-01-15T19:27:02.953Z,42.03
2018-01-15T19:29:30.402Z,42.53
2018-01-15T19:31:57.930Z,34.33
2018-01-15T19:37:36.179Z,30.95
2018-01-15T19:40:03.634Z,34.97
2018-01-15T19:42:31.941Z,34.67
2018-01-15T19:45:05.029Z,37.50
2018-01-15T19:47:38.171Z,35.72
2018-01-15T19:50:11.347Z,35.95
2018-01-15T19:52:44.491Z,35.08
2018-01-15T19:55:18.534Z,35.85
2018-01-15T19:57:51.831Z,39.92
2018-01-15T20:00:25.207Z,35.55
2018-01-15T20:02:59.110Z,40.53
2018-01-15T20:05:32.249Z,42.53
2018-01-15T20:08:05.545Z,42.60
2018-01-15T20:10:38.889Z,37.47
2018-01-15T20:13:07.133Z,41.72
2018-01-15T20:15:35.362Z,36.35
2018-01-15T20:18:02.864Z,34.05
2018-01-15T20:20:30.413Z,40.00
2018-01-15T20:22:57.886Z,38.28
2018-01-15T20:25:25.355Z,37.75
2018-01-15T20:27:52.878Z,32.70
2018-01-15T20:30:20.392Z,40.30
2018-01-15T20:32:48.609Z,45.20
2018-01-15T20:35:16.102Z,37.38
2018-01-15T20:37:44.393Z,34.03
2018-01-15T20:40:11.873Z,33.13
2018-01-15T20:42:40.134Z,30.02
2018-01-15T20:45:08.438Z,31.77
2018-01-15T20:47:35.865Z,29.40
2018-01-15T20:50:04.118Z,35.17
2018-01-15T20:52:31.586Z,31.42
2018-01-15T20:54:59.097Z,31.85
2018-01-15T20:57:26.569Z,30.25
2018-01-15T20:59:54.098Z,33.85
2018-01-15T21:02:22.360Z,36.30
2018-01-15T21:04:50.601Z,29.30
2018-01-15T21:07:18.102Z,34.00
2018-01-15T21:09:45.601Z,29.75
2018-01-15T21:12:13.066Z,30.73
2018-01-15T21:14:40.618Z,29.83
2018-01-15T21:17:08.105Z,24.30
2018-01-15T21:19:35.642Z,28.38
2018-01-15T21:22:03.102Z,34.92
2018-01-15T21:24:30.601Z,20.98
2018-01-15T21:26:58.848Z,25.12
2018-01-15T21:29:26.319Z,25.62
2018-01-15T21:31:53.811Z,25.58
2018-01-15T21:34:21.285Z,29.02
2018-01-15T21:36:48.799Z,25.23
2018-01-15T21:39:16.281Z,22.60
2018-01-15T21:41:44.506Z,20.37
2018-01-15T21:44:12.044Z,18.90
2018-01-15T21:46:39.523Z,16.10
2018-01-15T21:49:07.015Z,17.67
2018-01-15T21:51:35.250Z,18.75
2018-01-15T21:54:02.753Z,21.23
2018-01-15T21:56:30.981Z,16.35
2018-01-15T21:58:58.470Z,15.60
2018-01-15T22:01:25.942Z,12.65
2018-01-15T22:03:54.168Z,14.27
2018-01-15T22:06:21.666Z,14.98
2018-01-15T22:08:49.129Z,10.70
2018-01-15T22:11:16.646Z,13.10
2018-01-15T22:13:44.125Z,11.55
2018-01-15T22:16:11.577Z,13.50
2018-01-15T22:18:39.104Z,26.73
2018-01-15T22:21:06.589Z,15.48
2018-01-15T22:23:34.050Z,14.70
2018-01-15T22:26:01.545Z,15.35
2018-01-15T22:28:29.762Z,14.98
2018-01-15T22:30:57.226Z,10.82
2018-01-15T22:33:24.726Z,10.75
2018-01-15T22:35:52.229Z,15.50
2018-01-15T22:38:19.713Z,12.60
2018-01-15T22:40:47.170Z,13.02
2018-01-15T22:43:14.665Z,19.05
2018-01-15T22:45:42.153Z,15.93
2018-01-15T22:48:10.413Z,15.35
2018-01-15T22:50:37.884Z,14.77
2018-01-15T22:53:06.097Z,16.52
2018-01-15T22:55:33.593Z,12.55
2018-01-15T22:58:01.862Z,15.77
2018-01-15T23:00:29.344Z,10.48
2018-01-15T23:02:57.613Z,12.15
2018-01-15T23:05:25.863Z,15.95
2018-01-15T23:07:53.325Z,15.40
2018-01-15T23:10:20.823Z,14.75
2018-01-15T23:12:49.052Z,13.25
2018-01-15T23:15:16.561Z,13.45
2018-01-15T23:17:44.055Z,12.30
2018-01-15T23:20:11.534Z,20.85
2018-01-15T23:22:39.026Z,13.32
2018-01-15T23:25:07.278Z,17.70
2018-01-15T23:27:34.764Z,16.70
2018-01-15T23:30:02.266Z,12.00
2018-01-15T23:32:29.761Z,14.43
2018-01-15T23:34:57.269Z,16.77
2018-01-15T23:37:24.715Z,13.98
2018-01-15T23:39:52.220Z,9.30
2018-01-15T23:42:19.688Z,10.55
2018-01-15T23:44:47.166Z,10.38
2018-01-15T23:47:15.401Z,12.63
2018-01-15T23:49:42.869Z,11.20
2018-01-15T23:52:10.361Z,13.05
2018-01-15T23:54:38.594Z,9.82
2018-01-15T23:57:06.097Z,9.60
2018-01-15T23:59:34.322Z,8.43
